Time;durP1;ratioP1;P1;durP2;ratioP2;P2;SDS_P1;SDS_P2;PMS_P1;PMS_P2;Temp;Humidity;BMP_temperature;BMP_pressure;BME280_temperature;BME280_humidity;BME280_pressure;Samples;Min_cycle;Max_cycle;Signal;HPM_P1;HPM_P2
2022/12/01 00:00:38;;;;;;;11.35;9.07;;;;;;;18.52;48.12;102703.50;5025707;28;20021;-63
2022/12/01 00:03:04;;;;;;;12.55;8.80;;;;;;;18.47;48.32;102694.91;5025492;28;20026;-62
2022/12/01 00:05:29;;;;;;;12.27;9.68;;;;;;;18.51;48.19;102709.84;5025410;28;20030;-61
2022/12/01 00:07:56;;;;;;;11.15;8.50;;;;;;;18.50;48.38;102702.75;5025135;28;20038;-62
2022/12/01 00:10:27;;;;;;;10.68;8.63;;;;;;;18.37;47.97;102689.41;5025640;28;20030;-62
2022/12/01 00:12:54;;;;;;;12.88;9.30;;;;;;;18.48;48.07;102707.44;5024773;28;20030;-62
2022/12/01 00:15:19;;;;;;;12.48;9.13;;;;;;;18.47;48.24;102703.84;5025517;28;20030;-61
2022/12/01 00:17:46;;;;;;;12.23;8.35;;;;;;;18.47;48.09;102711.06;5025170;28;20029;-62
2022/12/01 00:20:12;;;;;;;11.98;9.02;;;;;;;18.46;48.12;102707.53;5025752;28;20037;-62
2022/12/01 00:22:41;;;;;;;12.73;9.55;;;;;;;18.37;48.30;102696.63;5024968;28;20021;-62
2022/12/01 00:25:06;;;;;;;;;;;;;;;18.46;48.16;102714.75;5025881;28;20025;-62
2022/12/01 00:27:32;;;;;;;10.88;8.02;;;;;;;18.45;47.93;102713.03;5024920;28;19919;-61
2022/12/01 00:29:57;;;;;;;10.80;8.68;;;;;;;18.43;48.10;102704.22;5025398;28;20030;-62
2022/12/01 00:32:22;;;;;;;10.50;8.20;;;;;;;18.42;48.08;102707.91;5025279;28;20029;-62
2022/12/01 00:34:47;;;;;;;11.73;8.95;;;;;;;18.41;48.16;102698.13;5025350;28;20032;-62
2022/12/01 00:37:13;;;;;;;12.55;9.35;;;;;;;18.40;48.16;102704.47;5024925;28;20041;-62
2022/12/01 00:39:38;;;;;;;12.05;8.90;;;;;;;18.39;48.08;102700.94;5024831;28;20053;-63
2022/12/01 00:42:03;;;;;;;12.70;10.02;;;;;;;18.38;48.06;102701.91;5024448;28;20120;-63
2022/12/01 00:44:28;;;;;;;11.05;8.27;;;;;;;18.38;48.29;102701.03;5025058;28;20045;-62
2022/12/01 00:46:54;;;;;;;10.90;8.38;;;;;;;18.35;48.00;102694.09;5024637;28;20068;-63
2022/12/01 00:49:19;;;;;;;12.02;8.98;;;;;;;18.36;48.18;102701.16;5025053;28;20034;-61
2022/12/01 00:51:44;;;;;;;12.20;8.82;;;;;;;18.28;47.86;102687.44;5024880;28;20026;-62
2022/12/01 00:54:09;;;;;;;12.10;8.90;;;;;;;18.36;48.18;102706.56;5025163;28;20036;-62
2022/12/01 00:56:35;;;;;;;11.57;9.20;;;;;;;18.36;48.10;102705.69;5024553;28;20038;-61
2022/12/01 00:59:00;;;;;;;12.57;8.43;;;;;;;18.35;48.24;102706.66;5024647;28;20470;-62
2022/12/01 01:01:25;;;;;;;10.45;8.88;;;;;;;18.34;47.95;102705.81;5024709;28;20064;-62
2022/12/01 01:03:50;;;;;;;12.88;9.80;;;;;;;18.26;48.17;102699.31;5024918;28;20072;-62
2022/12/01 01:06:15;;;;;;;10.63;8.45;;;;;;;18.34;48.07;102707.66;5024858;28;20025;-61
2022/12/01 01:08:41;;;;;;;12.00;9.70;;;;;;;18.31;48.30;102711.47;5026633;28;20053;-62
2022/12/01 01:11:07;;;;;;;11.45;8.50;;;;;;;18.32;47.98;102710.47;5028693;28;20048;-62
2022/12/01 01:13:33;;;;;;;12.70;9.50;;;;;;;18.31;47.98;102708.75;5010601;28;20021;-62
2022/12/01 01:16:12;;;;;;;12.45;9.23;;;;;;;18.30;48.00;102711.56;5028560;28;20049;-62
2022/12/01 01:18:38;;;;;;;13.55;9.65;;;;;;;18.30;47.96;102714.25;5028679;28;20025;-63
2022/12/01 01:21:06;;;;;;;12.50;9.27;;;;;;;18.29;47.97;102712.53;5028272;28;20022;-63
2022/12/01 01:23:31;;;;;;;12.70;9.10;;;;;;;18.29;48.25;102715.22;5028756;28;20021;-63
2022/12/01 01:26:09;;;;;;;12.38;9.90;;;;;;;18.19;48.15;102701.66;5028400;28;20021;-62
2022/12/01 01:28:34;;;;;;;12.75;9.85;;;;;;;18.28;48.14;102716.22;5010491;28;20125;-62
2022/12/01 01:31:05;;;;;;;12.30;9.30;;;;;;;18.15;48.09;102698.34;5028361;28;20029;-62
2022/12/01 01:33:30;;;;;;;11.02;8.77;;;;;;;18.26;47.84;102713.63;5028522;28;20029;-62
2022/12/01 01:35:58;;;;;;;13.32;9.88;;;;;;;18.25;48.01;102714.63;5028342;28;20087;-62
2022/12/01 01:38:23;;;;;;;12.70;9.87;;;;;;;18.19;48.14;102704.34;5028062;28;20080;-62
2022/12/01 01:40:49;;;;;;;12.43;9.32;;;;;;;18.21;48.18;102711.28;5027683;28;20295;-61
2022/12/01 01:43:16;;;;;;;13.00;9.88;;;;;;;18.24;48.12;102720.97;5027539;28;20100;-62
2022/12/01 01:45:41;;;;;;;11.98;9.38;;;;;;;18.19;47.95;102713.28;5010505;28;20093;-62
2022/12/01 01:48:09;;;;;;;13.30;9.52;;;;;;;18.18;47.81;102718.75;5027879;28;20033;-62
2022/12/01 01:50:34;;;;;;;12.95;10.77;;;;;;;18.22;48.12;102726.50;5010599;28;20036;-62
2022/12/01 01:53:09;;;;;;;13.25;10.25;;;;;;;18.22;47.75;102722.91;5027988;28;20035;-63
2022/12/01 01:55:35;;;;;;;11.27;9.23;;;;;;;18.21;48.00;102722.06;5010122;28;20037;-62
2022/12/01 01:58:04;;;;;;;12.18;9.30;;;;;;;18.21;47.87;102723.91;5027398;28;20026;-62
2022/12/01 02:00:30;;;;;;;12.70;9.57;;;;;;;18.11;47.91;102707.63;5028099;28;20090;-62
2022/12/01 02:02:56;;;;;;;12.43;9.68;;;;;;;18.19;48.08;102729.41;5027769;28;20041;-62
2022/12/01 02:05:23;;;;;;;13.27;10.23;;;;;;;18.19;48.02;102724.03;5010153;28;20061;-62
2022/12/01 02:07:54;;;;;;;11.05;8.93;;;;;;;18.18;48.19;102726.81;5009663;28;20025;-62
2022/12/01 02:10:23;;;;;;;13.93;10.75;;;;;;;18.17;48.20;102728.66;5010100;28;20049;-62
2022/12/01 02:12:54;;;;;;;12.20;9.02;;;;;;;18.17;48.10;102728.66;5009433;28;20095;-61
2022/12/01 02:15:43;;;;;;;12.82;9.70;;;;;;;18.09;47.95;102711.41;5027663;28;20033;-62
2022/12/01 02:18:24;;;;;;;12.10;9.30;;;;;;;18.04;48.02;102710.91;5026223;28;20393;-62
2022/12/01 02:21:19;;;;;;;13.80;10.57;;;;;;;18.15;48.03;102724.41;5026953;28;20041;-62
2022/12/01 02:23:54;;;;;;;12.45;9.40;;;;;;;18.15;48.15;102724.41;5009996;28;20030;-60
2022/12/01 02:26:47;;;;;;;12.75;9.95;;;;;;;18.14;48.03;102726.25;5027274;28;20048;-62
2022/12/01 02:29:46;;;;;;;13.43;9.80;;;;;;;18.13;47.93;102716.41;5009674;28;20026;-62
2022/12/01 02:32:22;;;;;;;11.00;8.50;;;;;;;18.12;48.02;102716.56;4993322;28;20057;-60
2022/12/01 02:35:06;;;;;;;15.27;10.27;;;;;;;18.11;47.91;102715.69;5027482;28;20034;-62
2022/12/01 02:37:35;;;;;;;12.68;9.82;;;;;;;18.04;48.00;102708.22;5026562;28;20367;-62
2022/12/01 02:40:10;;;;;;;13.40;9.75;;;;;;;18.09;47.82;102712.25;5009595;28;20033;-62
2022/12/01 02:42:50;;;;;;;13.27;9.70;;;;;;;17.97;47.89;102694.41;5008932;28;20038;-63
2022/12/01 02:45:49;;;;;;;11.65;8.90;;;;;;;18.08;48.00;102721.31;5011053;28;20030;-61
2022/12/01 02:48:23;;;;;;;11.40;9.27;;;;;;;18.07;47.86;102711.53;4992820;28;20479;-62
2022/12/01 02:50:50;;;;;;;14.45;10.73;;;;;;;17.98;48.04;102705.03;5009324;28;20033;-62
2022/12/01 02:53:17;;;;;;;13.60;10.00;;;;;;;18.07;48.13;102721.44;5009478;28;20546;-61
2022/12/01 02:55:54;;;;;;;15.45;10.13;;;;;;;18.02;48.03;102720.94;5026884;28;20037;-62
2022/12/01 02:58:20;;;;;;;11.88;9.57;;;;;;;18.06;47.81;102719.75;5026379;28;20041;-60
2022/12/01 03:01:18;;;;;;;13.35;10.00;;;;;;;18.05;48.15;102713.47;5026555;28;20029;-63
2022/12/01 03:03:52;;;;;;;12.70;9.93;;;;;;;18.06;48.01;102727.81;5026874;28;20030;-62
2022/12/01 03:06:30;;;;;;;13.07;9.70;;;;;;;18.06;48.06;102734.03;5026481;28;20017;-62
2022/12/01 03:09:14;;;;;;;12.82;9.35;;;;;;;18.04;48.00;102738.69;5025192;28;20080;-62
2022/12/01 03:11:59;;;;;;;15.57;10.57;;;;;;;18.04;47.83;102735.13;5026350;28;20030;-62
2022/12/01 03:14:44;;;;;;;13.55;10.20;;;;;;;18.03;47.95;102733.41;5005630;28;20057;-62
2022/12/01 03:17:14;;;;;;;12.55;9.88;;;;;;;18.02;47.76;102732.56;5006384;28;20037;-62
2022/12/01 03:19:46;;;;;;;13.27;10.18;;;;;;;18.01;47.98;102730.84;4989240;28;20030;-63
2022/12/01 03:22:33;;;;;;;14.18;10.02;;;;;;;17.95;47.83;102717.84;5006547;28;20026;-62
2022/12/01 03:25:00;;;;;;;14.38;10.20;;;;;;;17.98;47.99;102723.88;4989097;28;20090;-62
2022/12/01 03:27:29;;;;;;;13.82;10.30;;;;;;;17.99;47.73;102717.50;4988498;28;20034;-62
2022/12/01 03:29:56;;;;;;;14.10;10.48;;;;;;;17.74;47.99;102682.69;4989151;28;20022;-62
2022/12/01 03:32:46;;;;;;;13.90;10.55;;;;;;;18.00;47.87;102726.44;4988523;28;20030;-61
2022/12/01 03:35:25;;;;;;;14.63;9.68;;;;;;;17.98;47.75;102715.78;4989779;28;20022;-62
2022/12/01 03:38:11;;;;;;;13.48;9.90;;;;;;;17.97;47.96;102719.47;5015730;28;20029;-61
2022/12/01 03:40:36;;;;;;;13.35;9.65;;;;;;;17.99;47.99;102730.97;5008517;28;20038;-61
2022/12/01 03:43:06;;;;;;;12.52;9.80;;;;;;;17.97;48.04;102732.94;5007804;28;20438;-61
2022/12/01 03:46:09;;;;;;;12.30;9.32;;;;;;;17.97;47.76;102732.94;5025983;28;20048;-61
2022/12/01 03:48:36;;;;;;;14.65;9.52;;;;;;;17.97;47.69;102726.69;5008311;28;20034;-61
2022/12/01 03:51:04;;;;;;;12.35;9.38;;;;;;;17.96;47.74;102727.63;5008259;28;20033;-61
2022/12/01 03:53:47;;;;;;;17.00;10.63;;;;;;;17.91;47.93;102719.91;5025913;28;20452;-61
2022/12/01 03:56:13;;;;;;;14.13;10.25;;;;;;;17.84;48.07;102710.63;5025671;28;20028;-62
2022/12/01 03:58:42;;;;;;;11.52;8.93;;;;;;;17.94;47.62;102725.06;5007793;28;20018;-61
2022/12/01 04:01:07;;;;;;;12.70;9.35;;;;;;;17.83;47.68;102710.72;5007843;28;20057;-61
2022/12/01 04:03:33;;;;;;;13.85;10.02;;;;;;;17.94;47.90;102733.16;4992028;28;20026;-62
2022/12/01 04:05:59;;;;;;;14.32;9.48;;;;;;;17.81;47.83;102716.25;5025586;28;20053;-61
2022/12/01 04:08:24;;;;;;;12.57;9.23;;;;;;;17.90;47.76;102728.97;5025010;28;20102;-60
2022/12/01 04:10:49;;;;;;;13.15;9.52;;;;;;;17.92;47.77;102729.69;5025693;28;20081;-60
2022/12/01 04:13:21;;;;;;;11.02;9.07;;;;;;;17.89;47.77;102721.03;5024867;28;20036;-61
2022/12/01 04:15:50;;;;;;;11.30;8.90;;;;;;;17.83;47.85;102708.88;5025704;28;20026;-62
2022/12/01 04:18:16;;;;;;;;;;;;;;;17.92;47.63;102720.78;5025732;28;20414;-62
2022/12/01 04:20:42;;;;;;;11.38;8.90;;;;;;;17.92;47.91;102723.47;5025336;28;20452;-62
2022/12/01 04:23:08;;;;;;;13.45;9.40;;;;;;;17.91;47.85;102732.53;5025615;28;20022;-62
2022/12/01 04:25:33;;;;;;;13.68;9.48;;;;;;;17.87;47.42;102731.91;5025251;28;20089;-63
2022/12/01 04:27:58;;;;;;;13.93;10.00;;;;;;;17.89;47.67;102737.19;5024645;28;20030;-62
2022/12/01 04:30:23;;;;;;;11.70;9.00;;;;;;;17.88;47.87;102733.63;5025570;28;20049;-63
2022/12/01 04:32:49;;;;;;;13.32;9.52;;;;;;;17.89;47.90;102739.88;5025154;28;20033;-62
2022/12/01 04:35:14;;;;;;;12.35;9.85;;;;;;;17.89;47.90;102737.19;5025607;28;20460;-63
2022/12/01 04:37:39;;;;;;;11.85;9.30;;;;;;;17.76;47.87;102714.88;5004110;28;20030;-60
2022/12/01 04:40:07;;;;;;;14.07;10.25;;;;;;;17.88;47.95;102740.81;5023331;28;20042;-62
2022/12/01 04:42:32;;;;;;;12.05;9.25;;;;;;;17.86;47.69;102740.94;5030874;28;20110;-62
2022/12/01 04:44:58;;;;;;;13.57;9.60;;;;;;;17.87;47.71;102741.81;5044685;28;20076;-62
2022/12/01 04:47:23;;;;;;;12.48;9.50;;;;;;;17.86;47.59;102738.25;5044429;28;20037;-63
2022/12/01 04:49:48;;;;;;;13.57;10.02;;;;;;;17.87;47.86;102736.44;5044836;28;20025;-63
2022/12/01 04:52:13;;;;;;;12.25;9.35;;;;;;;17.67;47.77;102706.50;5044166;28;20021;-63
2022/12/01 04:54:39;;;;;;;11.63;9.18;;;;;;;17.53;47.69;102692.38;5044695;28;20025;-63
2022/12/01 04:57:04;;;;;;;13.40;9.55;;;;;;;17.84;47.92;102729.47;5044067;28;20036;-61
2022/12/01 04:59:29;;;;;;;12.40;10.02;;;;;;;17.85;47.62;102736.56;5044770;28;20032;-63
2022/12/01 05:01:54;;;;;;;12.57;9.60;;;;;;;17.85;47.93;102744.63;5042917;28;20060;-62
2022/12/01 05:04:20;;;;;;;12.48;9.73;;;;;;;17.84;47.89;102737.53;5024859;28;20029;-62
2022/12/01 05:06:45;;;;;;;12.07;8.93;;;;;;;17.83;47.79;102738.50;5024480;28;20026;-62
2022/12/01 05:09:14;;;;;;;12.73;9.30;;;;;;;17.83;47.61;102732.25;5024858;28;20029;-63
2022/12/01 05:11:40;;;;;;;13.23;9.77;;;;;;;17.83;47.70;102730.41;5024860;28;20034;-63
2022/12/01 05:14:05;;;;;;;12.75;9.48;;;;;;;17.83;47.81;102729.56;5023982;28;20599;-61
2022/12/01 05:16:31;;;;;;;14.35;10.05;;;;;;;17.69;47.90;102711.75;5024629;28;20117;-63
2022/12/01 05:21:45;;;;;;;13.60;10.35;;;;;;;17.81;47.84;102735.06;5023502;28;20104;-63
2022/12/01 05:24:11;;;;;;;12.48;9.57;;;;;;;17.82;47.62;102734.09;5023951;28;20086;-63
2022/12/01 05:26:37;;;;;;;12.25;9.65;;;;;;;17.76;47.78;102723.81;5023685;28;20021;-63
2022/12/01 05:29:03;;;;;;;13.88;9.63;;;;;;;17.82;47.75;102734.09;5023253;28;20045;-62
2022/12/01 05:31:28;;;;;;;13.15;9.98;;;;;;;17.83;48.02;102733.09;5024003;28;20086;-63
2022/12/01 05:33:54;;;;;;;13.10;9.77;;;;;;;17.84;47.63;102737.53;5023663;28;20030;-62
2022/12/01 05:36:19;;;;;;;13.52;9.75;;;;;;;17.84;48.06;102733.97;5023898;28;20028;-63
2022/12/01 05:38:44;;;;;;;12.63;9.63;;;;;;;17.84;47.96;102740.22;5024084;28;20025;-63
2022/12/01 05:41:09;;;;;;;13.23;9.95;;;;;;;17.85;47.89;102739.25;5024296;28;20817;-63
2022/12/01 05:43:35;;;;;;;13.38;10.27;;;;;;;17.86;47.79;102740.09;5023552;28;20064;-62
2022/12/01 05:46:00;;;;;;;14.88;9.80;;;;;;;17.87;48.04;102733.72;5006165;28;20053;-63
2022/12/01 05:48:25;;;;;;;12.90;9.38;;;;;;;17.84;48.28;102732.16;5023560;28;20030;-62
2022/12/01 05:50:51;;;;;;;15.82;10.20;;;;;;;17.88;48.11;102741.72;5024031;28;20061;-62
2022/12/01 05:53:16;;;;;;;16.25;10.35;;;;;;;17.90;48.16;102733.50;5024080;28;20029;-62
2022/12/01 05:55:42;;;;;;;13.63;10.40;;;;;;;17.91;48.52;102732.53;5026907;28;20026;-61
2022/12/01 05:58:07;;;;;;;14.55;10.88;;;;;;;17.83;48.40;102726.88;5026753;28;20017;-62
2022/12/01 06:00:33;;;;;;;14.45;10.63;;;;;;;17.91;48.37;102743.28;5008173;28;20076;-61
2022/12/01 06:02:58;;;;;;;13.27;9.60;;;;;;;17.92;48.35;102743.16;5027241;28;20056;-61
2022/12/01 06:05:23;;;;;;;13.15;9.95;;;;;;;17.93;48.29;102734.13;5026023;28;20061;-62
2022/12/01 06:07:48;;;;;;;14.70;10.77;;;;;;;17.93;48.51;102736.81;5024095;28;20030;-61
2022/12/01 06:10:14;;;;;;;13.02;9.55;;;;;;;17.95;48.53;102742.06;5027340;28;20017;-62
2022/12/01 06:12:39;;;;;;;11.88;8.82;;;;;;;16.97;48.28;102580.09;5026167;28;20097;-62
2022/12/01 06:15:05;;;;;;;14.93;10.55;;;;;;;17.92;48.31;102745.00;5026737;28;20052;-62
2022/12/01 06:17:31;;;;;;;14.27;10.32;;;;;;;17.96;48.52;102749.16;5017082;28;20022;-63
2022/12/01 06:19:56;;;;;;;13.95;10.07;;;;;;;17.97;48.80;102753.59;5017703;28;20153;-62
2022/12/01 06:22:21;;;;;;;14.40;10.43;;;;;;;17.93;48.50;102744.91;5017809;28;20036;-61
2022/12/01 06:24:47;;;;;;;13.02;9.68;;;;;;;17.95;48.47;102745.63;5016916;28;20482;-62
2022/12/01 06:27:12;;;;;;;14.95;10.40;;;;;;;17.99;48.67;102757.88;5017111;28;20058;-60
2022/12/01 06:29:37;;;;;;;15.35;10.88;;;;;;;18.00;48.72;102753.34;5016021;28;20022;-62
2022/12/01 06:32:03;;;;;;;13.30;10.35;;;;;;;18.01;48.39;102755.09;5017558;28;20026;-58
2022/12/01 06:34:28;;;;;;;16.00;11.52;;;;;;;18.02;48.66;102755.94;5017002;28;20029;-59
2022/12/01 06:36:53;;;;;;;15.18;10.32;;;;;;;18.02;48.61;102743.34;5015289;28;20021;-59
2022/12/01 06:39:18;;;;;;;14.23;9.70;;;;;;;18.03;48.42;102752.25;5021267;28;20025;-62
2022/12/01 06:41:44;;;;;;;13.88;9.85;;;;;;;18.04;48.44;102751.28;5015298;28;20026;-61
2022/12/01 06:44:09;;;;;;;13.55;10.13;;;;;;;17.94;48.70;102743.91;5016297;28;20046;-62
2022/12/01 06:46:35;;;;;;;15.18;10.70;;;;;;;18.05;48.53;102747.59;5016080;28;20022;-62
2022/12/01 06:49:00;;;;;;;16.23;10.52;;;;;;;17.68;48.56;102686.69;5016053;28;20026;-62
2022/12/01 06:51:25;;;;;;;11.93;9.50;;;;;;;18.03;48.51;102753.13;5021807;28;20559;-62
2022/12/01 06:53:54;;;;;;;13.02;9.85;;;;;;;18.00;48.34;102747.97;5015004;28;20030;-61
2022/12/01 06:56:20;;;;;;;14.95;11.02;;;;;;;18.07;48.47;102761.81;5016313;28;20483;-61
2022/12/01 06:58:45;;;;;;;16.30;11.55;;;;;;;17.97;48.42;102749.06;5016021;28;20034;-62
2022/12/01 07:01:11;;;;;;;13.40;10.02;;;;;;;18.08;48.43;102760.84;5015293;28;20465;-63
2022/12/01 07:03:37;;;;;;;13.40;9.55;;;;;;;18.08;48.41;102768.91;5016897;28;20033;-62
2022/12/01 07:06:03;;;;;;;14.32;9.90;;;;;;;18.02;48.62;102764.00;5015573;28;20034;-62
2022/12/01 07:08:29;;;;;;;13.32;10.15;;;;;;;18.08;48.83;102772.47;5015151;28;20364;-63
2022/12/01 07:10:57;;;;;;;13.88;9.25;;;;;;;18.10;48.47;102773.22;5015302;28;20475;-61
2022/12/01 07:13:23;;;;;;;12.75;9.52;;;;;;;18.10;48.40;102770.53;5016241;28;20026;-62
2022/12/01 07:15:48;;;;;;;13.23;9.75;;;;;;;18.09;48.39;102779.53;5007279;28;20034;-63
2022/12/01 07:18:13;;;;;;;12.93;9.85;;;;;;;18.12;48.52;102783.84;5011591;28;20029;-64
2022/12/01 07:20:38;;;;;;;16.20;10.40;;;;;;;18.12;48.56;102786.53;5016540;28;20031;-63
2022/12/01 07:23:03;;;;;;;16.02;11.02;;;;;;;18.11;48.69;102792.91;5014538;28;20117;-62
2022/12/01 07:25:29;;;;;;;17.35;10.43;;;;;;;18.07;48.73;102788.72;5017118;28;20033;-62
2022/12/01 07:27:54;;;;;;;12.65;9.43;;;;;;;18.10;48.67;102799.28;5017492;28;20037;-64
2022/12/01 07:30:19;;;;;;;17.90;10.88;;;;;;;18.09;48.53;102787.63;5016397;28;20033;-64
2022/12/01 07:32:44;;;;;;;14.32;9.65;;;;;;;18.11;48.72;102788.38;5010458;28;20519;-65
2022/12/01 07:35:10;;;;;;;14.68;9.80;;;;;;;18.12;48.82;102790.09;5017094;28;20057;-64
2022/12/01 07:37:35;;;;;;;13.90;10.38;;;;;;;18.13;48.59;102791.81;5024825;28;20037;-68
2022/12/01 07:40:00;;;;;;;14.20;9.43;;;;;;;17.88;48.59;102752.47;5020228;28;20037;-66
2022/12/01 07:42:25;;;;;;;15.05;10.25;;;;;;;18.16;48.75;102794.25;5016348;28;20488;-61
2022/12/01 07:44:51;;;;;;;13.90;9.75;;;;;;;18.18;48.65;102794.13;5016882;28;20074;-65
2022/12/01 07:47:16;;;;;;;14.80;10.40;;;;;;;18.20;48.70;102795.75;5023985;28;20026;-64
2022/12/01 07:49:41;;;;;;;14.63;9.77;;;;;;;18.21;48.66;102799.28;5025228;28;20048;-65
2022/12/01 07:52:06;;;;;;;16.60;11.15;;;;;;;18.24;48.68;102799.06;5023716;28;20101;-62
2022/12/01 07:54:32;;;;;;;13.65;10.25;;;;;;;18.12;48.82;102779.31;5024867;28;20177;-66
2022/12/01 07:56:57;;;;;;;14.95;10.30;;;;;;;18.28;48.65;102797.84;5024562;28;20025;-65
2022/12/01 07:59:22;;;;;;;14.25;10.07;;;;;;;18.30;48.48;102797.72;5023927;28;20066;-66
2022/12/01 08:01:47;;;;;;;15.73;11.45;;;;;;;18.32;48.37;102806.56;5019122;28;20034;-66
2022/12/01 08:04:13;;;;;;;14.52;10.35;;;;;;;18.31;48.60;102803.00;5005212;28;20030;-53
2022/12/01 08:06:38;;;;;;;17.10;10.52;;;;;;;18.34;48.33;102813.53;5005611;28;20026;-54
2022/12/01 08:09:03;;;;;;;15.88;11.73;;;;;;;18.36;48.66;102814.28;5024735;28;20026;-65
2022/12/01 08:11:28;;;;;;;13.07;10.07;;;;;;;18.36;48.38;102819.66;5023406;28;20034;-66
2022/12/01 08:13:54;;;;;;;14.73;10.23;;;;;;;18.37;48.28;102821.38;5019931;28;20029;-65
2022/12/01 08:16:21;;;;;;;14.23;10.45;;;;;;;18.39;48.30;102819.44;5024005;28;20033;-65
2022/12/01 08:18:47;;;;;;;16.13;11.02;;;;;;;18.41;48.16;102817.47;5023911;28;20085;-64
2022/12/01 08:21:15;;;;;;;13.32;10.02;;;;;;;18.42;48.41;102813.78;5023840;28;20032;-64
2022/12/01 08:23:41;;;;;;;15.75;10.38;;;;;;;18.38;48.33;102801.53;5008748;28;20030;-64
2022/12/01 08:26:15;;;;;;;15.48;10.85;;;;;;;18.46;47.99;102809.88;5005022;28;20030;-65
2022/12/01 08:28:42;;;;;;;14.45;9.88;;;;;;;18.47;48.13;102822.38;5021375;28;20124;-63
2022/12/01 08:31:13;;;;;;;14.15;10.73;;;;;;;18.48;47.84;102817.88;5024499;28;20085;-63
2022/12/01 08:33:38;;;;;;;16.55;10.65;;;;;;;18.45;47.67;102810.88;5024092;28;20090;-62
2022/12/01 08:36:04;;;;;;;13.32;9.75;;;;;;;18.52;47.69;102822.03;5024226;28;20034;-63
2022/12/01 08:38:30;;;;;;;14.50;10.65;;;;;;;18.53;47.95;102823.75;5024355;28;20029;-63
2022/12/01 08:41:02;;;;;;;15.07;9.80;;;;;;;18.54;47.74;102820.06;5022885;28;20034;-62
2022/12/01 08:43:27;;;;;;;14.10;10.25;;;;;;;18.54;47.34;102817.38;5023927;28;20050;-63
2022/12/01 08:45:53;;;;;;;16.05;11.23;;;;;;;18.57;47.54;102814.44;5024524;28;20049;-63
2022/12/01 08:48:18;;;;;;;15.27;11.40;;;;;;;18.53;47.36;102810.28;5022973;28;20017;-64
2022/12/01 08:50:43;;;;;;;16.10;10.13;;;;;;;18.58;47.54;102823.38;5015842;28;20030;-64
2022/12/01 08:53:08;;;;;;;15.55;10.18;;;;;;;18.55;48.11;102813.69;5024016;28;20056;-64
2022/12/01 08:55:33;;;;;;;15.25;10.50;;;;;;;18.59;47.92;102817.00;5023818;28;20034;-64
2022/12/01 08:57:59;;;;;;;12.80;9.75;;;;;;;18.61;47.87;102817.75;5023476;28;20145;-66
2022/12/01 09:00:24;;;;;;;15.65;10.65;;;;;;;18.62;47.76;102816.78;5024112;28;20030;-66
2022/12/01 09:02:49;;;;;;;15.27;10.63;;;;;;;18.62;47.98;102817.63;5023649;28;20032;-65
2022/12/01 09:05:14;;;;;;;13.57;10.07;;;;;;;18.64;47.75;102812.97;5024251;28;20040;-67
2022/12/01 09:07:41;;;;;;;15.13;10.38;;;;;;;18.55;47.74;102802.91;5022897;28;20026;-64
2022/12/01 09:10:07;;;;;;;13.52;10.20;;;;;;;18.64;47.81;102815.66;5024445;28;20077;-65
2022/12/01 09:12:33;;;;;;;13.82;10.15;;;;;;;18.67;47.63;102814.56;5022715;28;20061;-67
2022/12/01 09:14:58;;;;;;;15.07;10.38;;;;;;;18.67;47.86;102822.66;5011382;28;20030;-64
2022/12/01 09:17:23;;;;;;;14.70;10.23;;;;;;;18.67;47.65;102826.19;5004312;28;20042;-65
2022/12/01 09:19:48;;;;;;;14.48;11.02;;;;;;;18.68;47.93;102819.81;5004519;28;20034;-65
2022/12/01 09:22:14;;;;;;;14.07;10.68;;;;;;;18.72;47.71;102832.13;5018344;28;20090;-65
2022/12/01 09:24:39;;;;;;;17.17;11.27;;;;;;;18.55;47.97;102815.53;5020694;28;20033;-65
2022/12/01 09:27:04;;;;;;;13.75;10.80;;;;;;;18.74;47.36;102832.00;5023854;28;20037;-66
2022/12/01 09:29:30;;;;;;;13.15;9.80;;;;;;;18.74;47.34;102834.72;5024311;28;20026;-65
2022/12/01 09:31:56;;;;;;;16.77;9.82;;;;;;;18.76;47.32;102831.88;5027682;28;20052;-67
2022/12/01 09:34:22;;;;;;;14.68;10.63;;;;;;;18.73;47.24;102824.88;5010004;28;20030;-63
2022/12/01 09:36:47;;;;;;;14.38;10.55;;;;;;;18.68;47.30;102816.28;5027000;28;20032;-65
2022/12/01 09:39:18;;;;;;;14.93;10.85;;;;;;;18.78;47.43;102833.50;5027071;28;20554;-67
2022/12/01 09:41:54;;;;;;;13.10;10.13;;;;;;;18.72;47.19;102817.78;5008139;28;20434;-65
2022/12/01 09:44:43;;;;;;;15.00;10.52;;;;;;;18.78;47.33;102825.41;5007404;28;20049;-65
2022/12/01 09:47:17;;;;;;;14.48;11.57;;;;;;;18.81;47.22;102821.59;5007588;28;20026;-66
2022/12/01 09:50:03;;;;;;;16.98;11.38;;;;;;;18.81;46.89;102833.22;5007865;28;20045;-66
2022/12/01 09:52:33;;;;;;;16.60;11.40;;;;;;;18.83;46.89;102820.50;5007745;28;20038;-63
2022/12/01 09:54:59;;;;;;;17.08;11.75;;;;;;;18.83;46.89;102827.72;4990046;28;20026;-66
2022/12/01 09:57:35;;;;;;;16.33;11.40;;;;;;;18.84;47.13;102826.75;4990072;28;20045;-66
2022/12/01 10:00:05;;;;;;;15.13;10.95;;;;;;;18.84;47.08;102824.06;4999615;28;20029;-67
2022/12/01 10:02:35;;;;;;;16.17;11.13;;;;;;;18.87;46.56;102826.50;5028339;28;20033;-64
2022/12/01 10:05:04;;;;;;;16.42;11.50;;;;;;;18.86;46.80;102822.06;5008522;28;20063;-68
2022/12/01 10:07:33;;;;;;;15.13;10.25;;;;;;;18.87;47.18;102821.97;5026563;28;20152;-65
2022/12/01 10:10:03;;;;;;;16.60;11.00;;;;;;;18.89;47.04;102819.16;5009377;28;20497;-67
2022/12/01 10:12:31;;;;;;;16.15;11.45;;;;;;;18.89;46.82;102811.06;5002453;28;20034;-61
2022/12/01 10:15:13;;;;;;;14.90;11.10;;;;;;;18.92;46.87;102810.81;5016974;28;20541;-65
2022/12/01 10:17:42;;;;;;;15.40;10.40;;;;;;;18.93;46.92;102807.16;5025922;28;20025;-66
2022/12/01 10:20:32;;;;;;;17.98;11.70;;;;;;;18.94;47.03;102809.69;5026856;28;20032;-66
2022/12/01 10:23:33;;;;;;;17.67;11.15;;;;;;;18.96;47.30;102802.38;5008542;28;20038;-67
2022/12/01 10:26:14;;;;;;;12.30;9.82;;;;;;;18.99;47.03;102801.28;5009279;28;20085;-67
2022/12/01 10:29:05;;;;;;;15.25;11.00;;;;;;;18.98;47.00;102796.84;5026082;28;20030;-65
2022/12/01 10:31:47;;;;;;;15.02;11.32;;;;;;;19.01;47.01;102793.06;5008873;28;20061;-64
2022/12/01 10:34:20;;;;;;;15.10;11.02;;;;;;;19.02;47.12;102797.47;5009061;28;20025;-66
2022/12/01 10:36:46;;;;;;;15.73;11.05;;;;;;;19.03;46.97;102800.06;5033682;28;20061;-67
2022/12/01 10:39:38;;;;;;;16.45;11.40;;;;;;;19.03;46.93;102793.78;5016659;28;20018;-65
2022/12/01 10:42:13;;;;;;;16.17;11.48;;;;;;;18.95;47.07;102770.16;5004644;28;20030;-67
2022/12/01 10:44:39;;;;;;;17.48;11.85;;;;;;;19.07;46.90;102790.69;5007928;28;20045;-64
2022/12/01 10:47:19;;;;;;;16.23;11.60;;;;;;;19.07;47.17;102793.41;5006018;28;20034;-67
2022/12/01 10:49:44;;;;;;;16.27;11.88;;;;;;;18.68;46.95;102721.97;5024175;28;20029;-66
2022/12/01 10:52:34;;;;;;;14.88;11.18;;;;;;;19.10;47.20;102792.31;5022783;28;20032;-66
2022/12/01 10:54:59;;;;;;;14.88;10.70;;;;;;;19.13;46.93;102790.22;5024453;28;20030;-66
2022/12/01 10:57:26;;;;;;;14.65;10.80;;;;;;;19.15;46.71;102788.25;5025159;28;20029;-63
2022/12/01 10:59:56;;;;;;;13.95;11.35;;;;;;;19.15;46.65;102784.69;5025466;28;20057;-65
2022/12/01 11:02:24;;;;;;;15.98;11.30;;;;;;;19.13;46.80;102783.97;5007217;28;20037;-59
2022/12/01 11:04:53;;;;;;;15.32;11.25;;;;;;;19.14;46.53;102788.38;5006954;28;20030;-55
2022/12/01 11:07:44;;;;;;;14.63;10.88;;;;;;;19.16;46.79;102786.44;5025445;28;20034;-59
2022/12/01 11:10:21;;;;;;;14.60;10.48;;;;;;;19.05;46.58;102776.50;5017527;28;20124;-64
2022/12/01 11:12:57;;;;;;;15.25;11.10;;;;;;;19.17;46.76;102785.44;5023601;28;20029;-65
2022/12/01 11:15:26;;;;;;;15.85;11.25;;;;;;;19.20;46.48;102780.66;5004390;28;20032;-64
2022/12/01 11:18:00;;;;;;;17.33;11.98;;;;;;;19.17;46.51;102772.81;4992710;28;20467;-64
2022/12/01 11:20:32;;;;;;;14.13;10.85;;;;;;;19.18;46.52;102773.66;5022581;28;20030;-67
2022/12/01 11:23:16;;;;;;;14.75;12.00;;;;;;;19.24;46.48;102783.94;5023969;28;20034;-65
2022/12/01 11:25:59;;;;;;;14.75;10.60;;;;;;;19.25;46.73;102776.75;5024781;28;20022;-65